Time;durP1;ratioP1;P1;durP2;ratioP2;P2;SDS_P1;SDS_P2;PMS_P1;PMS_P2;Temp;Humidity;BMP_temperature;BMP_pressure;BME280_temperature;BME280_humidity;BME280_pressure;Samples;Min_cycle;Max_cycle;Signal;HPM_P1;HPM_P2
2022/05/22 00:01:57;;;;;;;5.87;2.17;;;;;;;19.78;44.35;99842.77;124917;1099;103185;-75
2022/05/22 00:04:31;;;;;;;12.30;2.00;;;;;;;19.75;44.56;99840.11;125034;1099;104195;-75
2022/05/22 00:07:02;;;;;;;5.20;2.10;;;;;;;19.71;44.75;99825.97;124953;1098;101828;-76
2022/05/22 00:09:34;;;;;;;7.67;2.33;;;;;;;19.71;44.70;99831.29;125023;1099;102201;-75
2022/05/22 00:12:09;;;;;;;7.13;2.10;;;;;;;19.68;44.64;99828.67;125131;1099;104239;-75
2022/05/22 00:14:40;;;;;;;12.83;2.37;;;;;;;19.67;44.16;99832.22;125046;1099;102836;-76
2022/05/22 00:17:14;;;;;;;6.60;2.10;;;;;;;19.66;45.10;99824.25;125122;1099;104166;-75
2022/05/22 00:19:46;;;;;;;6.87;2.27;;;;;;;19.65;44.98;99822.48;124536;1099;104066;-76
2022/05/22 00:22:19;;;;;;;8.67;2.17;;;;;;;19.63;45.34;99829.61;125127;1099;104163;-75
2022/05/22 00:24:50;;;;;;;;;;;;;;;19.61;44.67;99832.29;124561;1099;104329;-76
2022/05/22 00:27:22;;;;;;;7.70;2.20;;;;;;;19.60;45.07;99848.27;124938;1099;102775;-75
2022/05/22 00:29:55;;;;;;;11.37;2.00;;;;;;;19.57;45.50;99850.08;124844;1099;104160;-74
2022/05/22 00:32:28;;;;;;;8.20;2.20;;;;;;;19.57;45.30;99846.52;124893;1099;104370;-75
2022/05/22 00:35:02;;;;;;;10.50;2.37;;;;;;;19.53;45.12;99861.65;124504;1102;103926;-75
2022/05/22 00:37:34;;;;;;;14.33;2.45;;;;;;;19.44;46.38;99859.09;125107;1099;104174;-75
2022/05/22 00:40:08;;;;;;;11.37;2.60;;;;;;;19.35;46.08;99851.20;125127;1099;104172;-75
2022/05/22 00:42:42;;;;;;;9.20;2.40;;;;;;;19.25;46.78;99866.39;124963;1099;104335;-75
2022/05/22 00:45:14;;;;;;;13.03;2.30;;;;;;;19.12;47.80;99854.99;124976;1099;102961;-75
2022/05/22 00:47:45;;;;;;;11.53;2.67;;;;;;;18.94;48.51;99855.16;124764;1099;104839;-75
2022/05/22 00:50:19;;;;;;;14.03;2.80;;;;;;;18.75;48.19;99849.09;124850;1099;102832;-75
2022/05/22 00:52:57;;;;;;;5.73;2.23;;;;;;;18.59;48.47;99845.65;124924;1099;104217;-75
2022/05/22 00:55:32;;;;;;;9.27;2.23;;;;;;;18.43;48.90;99842.23;124940;1099;101953;-75
2022/05/22 00:58:08;;;;;;;11.53;2.17;;;;;;;18.31;49.44;99844.08;124944;1097;102772;-74
2022/05/22 01:00:41;;;;;;;13.70;3.00;;;;;;;18.22;49.75;99838.83;124911;1099;102830;-75
2022/05/22 01:03:31;;;;;;;10.10;2.90;;;;;;;18.13;50.61;99841.53;125034;1099;101918;-75
2022/05/22 01:06:08;;;;;;;16.97;2.87;;;;;;;18.02;50.49;99830.98;124899;1099;104274;-75
2022/05/22 01:08:40;;;;;;;12.27;2.50;;;;;;;17.96;50.76;99831.88;124884;1099;103145;-75
2022/05/22 01:11:17;;;;;;;13.03;2.67;;;;;;;17.92;51.13;99827.50;124976;1098;104255;-75
2022/05/22 01:13:52;;;;;;;9.67;2.50;;;;;;;17.88;51.40;99825.73;124521;1099;104214;-75
2022/05/22 01:16:25;;;;;;;15.97;2.60;;;;;;;17.87;51.55;99823.05;124576;1099;110346;-76
2022/05/22 01:18:58;;;;;;;9.53;2.43;;;;;;;17.84;52.24;99823.97;124577;1102;104252;-75
2022/05/22 01:21:39;;;;;;;14.30;2.50;;;;;;;17.80;52.57;99824.87;124734;1099;102150;-75
2022/05/22 01:24:11;;;;;;;7.77;2.40;;;;;;;17.77;52.23;99828.41;124513;1102;104262;-74
2022/05/22 01:26:42;;;;;;;12.03;2.87;;;;;;;17.74;52.04;99820.45;124491;1102;104456;-76
2022/05/22 01:29:37;;;;;;;10.43;2.60;;;;;;;17.73;52.33;99815.16;124569;1102;104240;-75
2022/05/22 01:32:12;;;;;;;10.10;2.80;;;;;;;17.71;52.65;99809.86;124574;1099;104293;-75
2022/05/22 01:34:46;;;;;;;7.50;2.03;;;;;;;17.68;52.22;99807.22;124487;1102;101998;-75
2022/05/22 01:37:19;;;;;;;7.00;2.27;;;;;;;17.68;51.55;99806.34;124467;1099;104342;-75
2022/05/22 01:39:52;;;;;;;5.93;2.10;;;;;;;17.70;51.55;99812.52;124594;1099;102061;-74
2022/05/22 01:42:24;;;;;;;8.20;2.33;;;;;;;17.68;51.09;99806.34;124429;1102;104399;-75
2022/05/22 01:44:56;;;;;;;6.67;1.93;;;;;;;17.66;51.20;99802.83;124433;1102;102906;-74
2022/05/22 01:47:28;;;;;;;6.10;2.07;;;;;;;17.66;51.00;99792.22;124545;1102;104361;-75
2022/05/22 01:50:01;;;;;;;7.77;2.10;;;;;;;17.69;50.93;99792.20;124586;1099;104194;-75
2022/05/22 01:52:33;;;;;;;4.78;1.92;;;;;;;17.71;50.48;99780.67;124511;1099;104198;-74
2022/05/22 01:55:12;;;;;;;5.77;2.23;;;;;;;17.69;50.20;99787.77;124563;1102;104159;-75
2022/05/22 01:57:47;;;;;;;5.93;1.87;;;;;;;17.68;49.86;99783.34;124546;1099;104294;-74
2022/05/22 02:00:25;;;;;;;3.83;2.00;;;;;;;17.65;49.83;99785.14;124492;1102;103494;-75
2022/05/22 02:03:00;;;;;;;2.83;2.00;;;;;;;17.64;49.60;99786.92;124574;1102;104268;-76
2022/05/22 02:05:39;;;;;;;8.20;2.00;;;;;;;17.64;49.28;99786.92;124567;1102;104775;-75
2022/05/22 02:08:26;;;;;;;6.67;1.93;;;;;;;17.61;49.08;99787.80;124595;1102;104237;-75
2022/05/22 02:11:02;;;;;;;4.67;1.70;;;;;;;17.59;48.65;99792.24;124544;1099;104150;-75
2022/05/22 02:13:38;;;;;;;3.93;2.03;;;;;;;17.58;48.79;99795.77;124537;1099;104182;-76
2022/05/22 02:16:12;;;;;;;3.87;1.80;;;;;;;17.58;48.29;99797.55;124508;1099;104166;-75
2022/05/22 02:18:44;;;;;;;5.13;1.83;;;;;;;17.61;48.22;99797.55;124649;1102;102819;-75
2022/05/22 02:21:16;;;;;;;4.43;1.90;;;;;;;17.60;47.81;99793.98;124624;1103;104293;-75
2022/05/22 02:23:48;;;;;;;4.77;1.83;;;;;;;17.59;47.95;99797.55;124572;1102;104237;-75
2022/05/22 02:26:21;;;;;;;7.70;1.80;;;;;;;17.55;47.73;99795.78;124438;1099;104329;-75
2022/05/22 02:28:53;;;;;;;2.40;2.20;;;;;;;17.56;47.33;99794.91;124497;1102;104370;-75
2022/05/22 02:31:26;;;;;;;4.57;1.83;;;;;;;17.56;47.49;99808.17;124636;1102;102790;-75
2022/05/22 02:34:01;;;;;;;5.93;1.80;;;;;;;17.56;47.33;99813.48;124696;1099;102375;-75
2022/05/22 02:36:33;;;;;;;7.00;2.53;;;;;;;17.58;47.79;99808.16;125232;1099;102317;-74
2022/05/22 02:39:08;;;;;;;13.07;2.73;;;;;;;17.60;47.59;99815.20;125180;1099;104176;-75
2022/05/22 02:41:40;;;;;;;8.90;2.00;;;;;;;17.61;47.61;99808.16;124685;1099;102846;-75
2022/05/22 02:44:12;;;;;;;7.23;2.20;;;;;;;17.61;47.44;99818.77;125384;1099;104156;-75
2022/05/22 02:46:45;;;;;;;7.00;2.10;;;;;;;17.60;47.83;99817.86;125301;1099;104242;-75
2022/05/22 02:49:17;;;;;;;5.70;1.67;;;;;;;17.60;47.53;99823.16;125163;1099;104182;-75
2022/05/22 02:51:50;;;;;;;3.37;1.70;;;;;;;17.59;47.30;99820.52;125220;1099;102879;-75
2022/05/22 02:54:25;;;;;;;6.77;1.90;;;;;;;17.61;47.29;99826.72;125474;1099;101958;-75
2022/05/22 02:57:03;;;;;;;4.00;1.73;;;;;;;17.61;47.26;99826.72;124819;1099;104111;-75
2022/05/22 02:59:39;;;;;;;6.20;1.67;;;;;;;17.59;46.92;99824.08;125042;1099;104115;-75
2022/05/22 03:02:17;;;;;;;6.13;1.93;;;;;;;17.59;46.93;99829.38;125214;1099;101850;-76
2022/05/22 03:04:51;;;;;;;7.90;1.80;;;;;;;17.60;47.15;99827.59;125261;1099;104275;-76
2022/05/22 03:07:26;;;;;;;4.20;2.10;;;;;;;17.61;47.23;99832.03;125295;1099;104173;-75
2022/05/22 03:09:58;;;;;;;3.40;1.83;;;;;;;17.64;47.00;99836.42;125200;1099;104130;-74
2022/05/22 03:12:35;;;;;;;4.50;1.70;;;;;;;17.60;46.77;99827.59;125206;1099;104217;-75
2022/05/22 03:15:10;;;;;;;9.33;1.97;;;;;;;17.57;46.60;99831.13;125323;1099;102365;-75
2022/05/22 03:17:52;;;;;;;6.80;2.00;;;;;;;17.58;46.88;99824.08;125485;1099;104116;-75
2022/05/22 03:20:40;;;;;;;6.63;1.90;;;;;;;17.63;46.69;99832.02;125599;1099;104336;-75
2022/05/22 03:23:12;;;;;;;6.50;1.57;;;;;;;17.61;46.74;99832.90;125053;1099;104397;-75
2022/05/22 03:25:48;;;;;;;6.07;1.67;;;;;;;17.59;46.37;99834.69;124876;1099;102993;-75
2022/05/22 03:28:23;;;;;;;6.83;1.80;;;;;;;17.58;46.33;99822.30;124837;1102;104194;-76
2022/05/22 03:30:55;;;;;;;9.93;2.20;;;;;;;17.58;46.73;99811.69;124627;1102;104869;-75
2022/05/22 03:33:27;;;;;;;6.83;1.70;;;;;;;17.64;46.69;99816.10;124672;1102;102254;-76
2022/05/22 03:36:00;;;;;;;2.90;1.70;;;;;;;17.66;46.47;99808.13;124683;1099;102070;-76
2022/05/22 03:38:40;;;;;;;5.15;1.70;;;;;;;17.67;46.42;99801.92;124750;1102;102463;-75
2022/05/22 03:41:15;;;;;;;3.40;1.50;;;;;;;17.71;46.01;99816.95;124759;1102;104223;-76
2022/05/22 03:43:59;;;;;;;12.63;2.47;;;;;;;17.70;46.16;99812.52;124789;1102;104313;-75
2022/05/22 03:46:38;;;;;;;5.23;1.53;;;;;;;17.68;45.78;99812.52;124605;1102;104673;-75
2022/05/22 03:49:11;;;;;;;3.70;1.97;;;;;;;17.65;45.88;99812.53;124763;1102;102502;-75
2022/05/22 03:51:50;;;;;;;4.70;1.83;;;;;;;17.69;45.71;99811.64;124740;1102;104408;-75
2022/05/22 03:54:24;;;;;;;6.40;1.80;;;;;;;17.70;45.77;99810.77;124992;1099;104312;-75
2022/05/22 03:57:00;;;;;;;1.50;1.40;;;;;;;17.70;45.60;99813.42;125465;1098;102976;-75
2022/05/22 03:59:38;;;;;;;1.95;1.40;;;;;;;17.72;45.83;99808.11;125415;1099;102519;-75
2022/05/22 04:02:14;;;;;;;6.10;1.53;;;;;;;17.76;45.72;99808.09;125275;1099;104702;-76
2022/05/22 04:04:50;;;;;;;4.00;1.93;;;;;;;17.78;45.35;99814.26;125440;1099;104303;-75
2022/05/22 04:07:33;;;;;;;4.87;1.50;;;;;;;17.78;45.42;99810.73;125538;1099;104144;-75
2022/05/22 04:10:13;;;;;;;3.53;1.80;;;;;;;17.78;45.38;99800.12;124851;1099;118267;-75
2022/05/22 04:12:50;;;;;;;5.20;2.00;;;;;;;17.79;45.19;99794.80;125535;1099;104466;-75
2022/05/22 04:15:36;;;;;;;4.13;1.80;;;;;;;17.78;45.29;99794.81;125150;1099;104204;-76
2022/05/22 04:18:09;;;;;;;4.50;1.73;;;;;;;17.79;45.06;99786.84;125358;1098;104252;-76
2022/05/22 04:20:41;;;;;;;3.90;1.30;;;;;;;17.81;44.88;99784.19;125272;1098;102413;-75
2022/05/22 04:26:34;;;;;;;3.98;1.77;;;;;;;17.94;44.86;99780.59;124720;1099;104223;-75
2022/05/22 04:29:08;;;;;;;3.10;1.47;;;;;;;17.97;44.94;99785.00;125174;1099;104230;-75
2022/05/22 04:31:44;;;;;;;5.60;1.80;;;;;;;17.95;44.70;99779.70;125314;1099;104238;-75
2022/05/22 04:34:22;;;;;;;5.20;1.67;;;;;;;17.93;44.69;99784.12;124881;1103;102536;-76
2022/05/22 04:36:55;;;;;;;4.83;2.20;;;;;;;17.94;44.80;99777.93;125262;1099;104169;-75
2022/05/22 04:39:43;;;;;;;4.57;2.03;;;;;;;18.02;44.57;99779.67;125112;1099;104166;-75
2022/05/22 04:42:19;;;;;;;3.57;2.10;;;;;;;18.11;44.61;99771.65;124906;1099;104163;-75
2022/05/22 04:44:51;;;;;;;4.10;2.13;;;;;;;18.22;44.56;99772.45;124921;1100;103030;-76
2022/05/22 04:47:43;;;;;;;2.60;1.90;;;;;;;18.31;44.57;99755.58;125345;1099;102938;-75
2022/05/22 04:50:20;;;;;;;3.65;1.60;;;;;;;18.43;44.66;99762.55;125224;1099;102494;-75
2022/05/22 04:53:11;;;;;;;5.17;1.90;;;;;;;18.52;44.14;99765.13;125244;1099;102741;-75
2022/05/22 04:56:08;;;;;;;7.40;1.90;;;;;;;18.59;43.97;99764.19;124754;1099;104159;-75
2022/05/22 04:58:47;;;;;;;3.30;1.80;;;;;;;18.58;44.22;99750.92;124543;1102;102791;-75
2022/05/22 05:01:20;;;;;;;5.07;1.70;;;;;;;18.59;43.90;99757.97;124608;1099;104197;-75
2022/05/22 05:04:22;;;;;;;7.20;1.70;;;;;;;18.60;43.32;99755.30;124557;1102;104162;-75
2022/05/22 05:07:05;;;;;;;4.73;1.50;;;;;;;18.64;43.51;99749.08;124610;1099;102905;-75
2022/05/22 05:09:59;;;;;;;5.70;2.00;;;;;;;18.69;43.87;99749.03;124550;1102;104759;-76
2022/05/22 05:12:51;;;;;;;4.50;2.33;;;;;;;18.69;43.52;99749.91;124684;1099;102347;-76
2022/05/22 05:15:32;;;;;;;3.57;1.70;;;;;;;18.73;43.56;99734.83;124639;1102;104223;-75
2022/05/22 05:18:33;;;;;;;2.00;1.70;;;;;;;18.73;43.08;99745.46;124510;1099;104390;-75
2022/05/22 05:21:13;;;;;;;5.17;2.07;;;;;;;18.75;43.21;99753.42;124526;1102;103137;-74
2022/05/22 05:23:46;;;;;;;2.77;1.50;;;;;;;18.83;43.08;99744.45;124615;1102;102519;-75
2022/05/22 05:26:30;;;;;;;2.77;1.50;;;;;;;18.87;42.73;99748.02;124550;1102;102906;-75
2022/05/22 05:29:07;;;;;;;6.23;2.00;;;;;;;18.88;43.16;99740.91;124486;1100;104402;-75
2022/05/22 05:31:49;;;;;;;3.20;1.70;;;;;;;18.79;42.84;99749.81;124547;1099;102980;-75
2022/05/22 05:34:22;;;;;;;5.70;1.60;;;;;;;18.75;42.93;99753.42;124426;1102;102823;-76
2022/05/22 05:37:10;;;;;;;2.70;1.77;;;;;;;18.69;43.15;99755.22;124592;1099;103245;-75
2022/05/22 05:39:54;;;;;;;4.77;1.93;;;;;;;18.72;43.18;99750.80;124970;1098;104147;-75
2022/05/22 05:42:42;;;;;;;2.20;1.50;;;;;;;18.73;43.24;99750.78;125022;1099;104240;-75
2022/05/22 05:45:15;;;;;;;3.20;2.10;;;;;;;18.73;42.95;99745.46;125170;1099;104233;-75
2022/05/22 05:47:57;;;;;;;5.67;2.20;;;;;;;18.73;43.04;99749.87;124979;1099;102444;-75
2022/05/22 05:50:39;;;;;;;2.33;2.00;;;;;;;18.74;42.77;99746.33;124933;1099;102730;-76
2022/05/22 05:53:19;;;;;;;5.30;1.97;;;;;;;18.76;42.92;99755.16;124978;1099;102810;-75
2022/05/22 05:55:51;;;;;;;4.87;2.20;;;;;;;18.81;42.75;99742.73;125072;1099;104286;-75
2022/05/22 05:58:30;;;;;;;5.57;2.00;;;;;;;18.81;41.36;99756.02;125021;1099;102436;-75
2022/05/22 06:01:14;;;;;;;5.23;1.80;;;;;;;18.78;42.02;99751.60;124878;1099;103540;-75
2022/05/22 06:03:48;;;;;;;6.40;1.90;;;;;;;18.75;41.44;99734.82;125038;1099;104245;-75
2022/05/22 06:06:22;;;;;;;2.80;1.80;;;;;;;18.75;41.65;99746.31;124916;1099;104255;-75
2022/05/22 06:08:55;;;;;;;8.40;2.07;;;;;;;18.79;41.99;99747.16;124842;1099;102446;-75
2022/05/22 06:11:52;;;;;;;4.87;2.17;;;;;;;18.88;41.82;99749.76;124683;1099;104004;-75
2022/05/22 06:14:32;;;;;;;4.10;1.70;;;;;;;18.93;41.79;99724.03;124534;1099;104354;-75
2022/05/22 06:17:06;;;;;;;7.10;1.90;;;;;;;18.96;40.86;99741.70;124455;1099;104306;-75
2022/05/22 06:19:58;;;;;;;5.90;2.10;;;;;;;18.97;41.41;99731.05;124959;1099;103890;-75
2022/05/22 06:22:34;;;;;;;9.53;2.03;;;;;;;18.99;40.89;99734.56;124920;1099;104141;-75
2022/05/22 06:25:10;;;;;;;5.27;1.83;;;;;;;18.99;40.04;99736.36;125078;1099;104628;-74
2022/05/22 06:28:00;;;;;;;4.30;1.73;;;;;;;19.01;40.49;99726.58;124871;1099;104221;-75
2022/05/22 06:30:50;;;;;;;4.00;1.87;;;;;;;19.06;40.31;99721.20;125141;1099;104258;-75
2022/05/22 06:33:36;;;;;;;2.90;1.77;;;;;;;19.17;40.70;99712.22;125000;1099;110216;-75
2022/05/22 06:36:26;;;;;;;5.20;2.10;;;;;;;19.29;40.34;99708.54;125063;1099;102117;-75
2022/05/22 06:42:34;;;;;;;6.43;2.00;;;;;;;19.43;40.10;99705.70;124693;1099;104049;-75
2022/05/22 06:45:33;;;;;;;5.57;1.97;;;;;;;19.48;39.82;99697.66;124880;1099;104265;-75
2022/05/22 06:48:25;;;;;;;9.07;1.90;;;;;;;19.58;39.13;99712.58;124431;1099;104214;-75
2022/05/22 06:51:26;;;;;;;5.87;1.80;;;;;;;19.64;38.79;99699.19;124545;1102;104288;-75
2022/05/22 06:54:29;;;;;;;3.97;1.90;;;;;;;19.75;39.28;99686.59;124964;1099;118401;-75
2022/05/22 06:57:24;;;;;;;6.62;1.72;;;;;;;19.82;39.05;99702.52;124919;1099;103251;-76
2022/05/22 07:00:20;;;;;;;2.10;1.67;;;;;;;19.89;37.88;99686.42;124760;1098;104842;-75
2022/05/22 07:02:53;;;;;;;8.05;2.10;;;;;;;19.99;38.02;99699.59;124914;1099;104233;-75
2022/05/22 07:05:43;;;;;;;6.57;2.00;;;;;;;20.09;38.11;99696.77;124635;1099;104687;-75
2022/05/22 07:08:36;;;;;;;5.30;1.90;;;;;;;20.20;38.24;99699.25;124925;1099;103273;-75
2022/05/22 07:11:39;;;;;;;6.30;1.97;;;;;;;20.33;37.82;99683.94;124658;1099;104165;-75
2022/05/22 07:14:32;;;;;;;5.43;2.10;;;;;;;20.53;37.99;99690.71;124944;1099;104182;-75
2022/05/22 07:17:12;;;;;;;;;;;;;;;20.56;37.46;99680.86;125011;1099;104191;-74
2022/05/22 07:20:02;;;;;;;4.73;1.90;;;;;;;20.67;37.59;99671.84;124748;1099;104258;-75
2022/05/22 07:22:53;;;;;;;4.22;2.08;;;;;;;20.71;36.57;99679.75;124552;1099;104258;-75
2022/05/22 07:25:41;;;;;;;7.07;1.80;;;;;;;20.82;36.65;99672.41;124639;1099;104198;-75
2022/05/22 07:28:16;;;;;;;3.13;1.80;;;;;;;20.89;35.85;99669.62;125100;1099;102518;-75
2022/05/22 07:30:59;;;;;;;7.30;2.20;;;;;;;20.95;35.76;99662.38;125003;1099;102740;-75
2022/05/22 07:33:51;;;;;;;5.27;1.60;;;;;;;21.14;36.82;99661.99;124730;1099;103424;-75
2022/05/22 07:36:24;;;;;;;5.07;1.80;;;;;;;21.32;35.45;99655.41;125018;1099;102972;-74
2022/05/22 07:39:15;;;;;;;4.27;2.00;;;;;;;21.52;35.28;99650.52;125029;1099;104191;-75
2022/05/22 07:42:03;;;;;;;4.70;2.00;;;;;;;;;;125006;1099;104177;-74
2022/05/22 07:44:58;;;;;;;2.40;2.07;;;;;;;21.84;35.41;99651.55;124929;1099;104246;-75
2022/05/22 07:47:47;;;;;;;5.12;1.80;;;;;;;22.10;35.64;99657.19;124529;1099;102451;-75
2022/05/22 07:50:54;;;;;;;4.77;1.93;;;;;;;22.20;34.98;99639.98;124846;1099;104297;-76
2022/05/22 07:53:46;;;;;;;9.57;1.93;;;;;;;22.36;35.02;99629.80;124583;1099;104341;-75
2022/05/22 07:56:56;;;;;;;5.57;2.00;;;;;;;22.57;35.34;99634.56;124490;1102;104416;-75
2022/05/22 07:59:59;;;;;;;3.23;1.80;;;;;;;22.52;33.92;99647.19;124813;1099;102816;-75
2022/05/22 08:02:51;;;;;;;3.57;1.83;;;;;;;22.50;33.38;99638.34;124971;1099;102274;-75
2022/05/22 08:05:27;;;;;;;6.17;2.20;;;;;;;22.59;33.85;99631.85;124929;1099;104208;-75
2022/05/22 08:08:05;;;;;;;4.33;1.63;;;;;;;22.63;33.57;99622.84;124468;1099;102541;-74
2022/05/22 08:11:15;;;;;;;5.27;1.40;;;;;;;22.53;33.77;99634.69;124994;1099;102570;-75
2022/05/22 08:14:01;;;;;;;4.70;1.70;;;;;;;22.59;33.45;99626.50;124905;1099;104265;-75
2022/05/22 08:16:45;;;;;;;8.48;2.10;;;;;;;22.69;33.34;99606.63;124957;1099;104262;-75
2022/05/22 08:19:35;;;;;;;2.93;1.47;;;;;;;22.74;32.78;99618.06;124939;1099;104888;-75
2022/05/22 08:22:30;;;;;;;2.53;1.80;;;;;;;22.79;32.82;99612.58;124664;1099;102878;-75
2022/05/22 08:25:23;;;;;;;4.43;1.90;;;;;;;22.83;33.03;99614.25;124886;1099;101997;-75
2022/05/22 08:27:55;;;;;;;4.20;1.57;;;;;;;22.87;32.55;99601.66;124438;1099;104302;-75
2022/05/22 08:30:29;;;;;;;6.53;1.70;;;;;;;22.87;32.82;99594.50;124475;1099;104162;-75
2022/05/22 08:33:00;;;;;;;;;;;;;;;22.91;32.13;99595.31;124887;1099;104195;-75
2022/05/22 08:35:34;;;;;;;4.97;1.80;;;;;;;22.94;32.64;99605.92;124868;1099;104357;-75
2022/05/22 08:38:07;;;;;;;2.40;1.60;;;;;;;23.00;32.61;99603.06;124897;1099;104160;-75
2022/05/22 08:40:47;;;;;;;4.77;1.90;;;;;;;22.93;31.84;99618.39;124971;1099;104182;-75
2022/05/22 08:43:30;;;;;;;3.33;1.70;;;;;;;22.88;31.92;99590.05;124511;1099;104235;-75
2022/05/22 08:46:08;;;;;;;5.00;1.40;;;;;;;22.88;31.92;99580.22;124482;1099;104300;-75
2022/05/22 08:48:45;;;;;;;4.67;1.50;;;;;;;22.98;32.38;99586.16;124869;1099;104169;-75
2022/05/22 08:51:22;;;;;;;3.17;1.50;;;;;;;23.02;32.27;99576.27;124902;1099;104195;-75
2022/05/22 08:54:03;;;;;;;8.00;1.43;;;;;;;23.02;31.01;99603.89;124993;1099;104964;-75
2022/05/22 08:59:34;;;;;;;2.87;1.55;;;;;;;22.87;32.00;99578.45;124908;1099;102216;-75
2022/05/22 09:02:22;;;;;;;1.83;1.40;;;;;;;22.94;31.98;99595.22;124973;1098;104185;-75
2022/05/22 09:04:58;;;;;;;3.73;1.60;;;;;;;23.07;31.83;99579.67;124979;1099;104312;-75
2022/05/22 09:07:41;;;;;;;4.50;1.57;;;;;;;23.21;31.95;99581.95;124460;1099;104307;-75
2022/05/22 09:10:16;;;;;;;6.07;1.57;;;;;;;23.20;31.22;99583.73;124897;1099;104638;-75
2022/05/22 09:13:09;;;;;;;5.27;1.83;;;;;;;22.91;31.53;99580.13;125038;1099;104370;-75
2022/05/22 09:15:50;;;;;;;2.87;1.47;;;;;;;22.84;30.93;99583.89;124858;1099;104201;-75
2022/05/22 09:18:34;;;;;;;3.10;1.73;;;;;;;22.74;31.50;99593.98;124994;1099;102811;-75
2022/05/22 09:21:16;;;;;;;6.97;1.70;;;;;;;22.82;32.02;99583.07;124896;1099;104182;-75
2022/05/22 09:24:06;;;;;;;5.60;1.70;;;;;;;22.95;32.23;99581.80;124953;1099;104191;-75
2022/05/22 09:26:56;;;;;;;1.60;1.50;;;;;;;22.98;32.44;99579.03;124973;1099;102255;-75
2022/05/22 09:30:06;;;;;;;4.13;2.40;;;;;;;23.09;32.04;99577.84;124881;1099;104361;-75
2022/05/22 09:32:53;;;;;;;7.23;2.07;;;;;;;23.17;32.07;99580.29;124859;1099;102009;-76
2022/05/22 09:35:31;;;;;;;2.95;1.80;;;;;;;23.28;32.01;99567.44;124866;1099;104609;-75
2022/05/22 09:38:16;;;;;;;2.07;1.20;;;;;;;23.39;31.81;99575.13;124833;1099;104210;-75
2022/05/22 09:40:49;;;;;;;4.83;1.72;;;;;;;23.30;30.57;99576.33;124967;1099;104226;-75
2022/05/22 09:43:39;;;;;;;5.20;1.40;;;;;;;22.95;30.87;99579.13;124936;1099;104222;-75
2022/05/22 09:46:34;;;;;;;2.97;1.20;;;;;;;22.68;30.94;99571.91;124769;1099;104175;-75
2022/05/22 09:49:37;;;;;;;4.50;1.47;;;;;;;22.62;30.37;99575.63;124449;1099;101850;-75
2022/05/22 09:52:14;;;;;;;3.60;1.30;;;;;;;22.72;31.38;99574.45;124816;1099;104229;-75
2022/05/22 09:55:05;;;;;;;1.27;0.90;;;;;;;22.81;30.62;99586.66;124832;1099;104266;-75
2022/05/22 09:57:53;;;;;;;3.00;1.50;;;;;;;22.80;30.78;99576.91;124758;1099;104127;-75
2022/05/22 10:00:37;;;;;;;3.50;1.57;;;;;;;23.01;30.67;99582.53;124890;1099;104188;-75
2022/05/22 10:03:15;;;;;;;2.83;1.00;;;;;;;23.05;30.43;99593.09;124829;1099;104316;-75
2022/05/22 10:05:57;;;;;;;6.40;1.20;;;;;;;22.97;30.17;99603.16;124979;1099;104191;-75
2022/05/22 10:08:40;;;;;;;5.50;1.20;;;;;;;22.96;30.78;99586.20;124805;1099;119736;-75
2022/05/22 10:11:18;;;;;;;1.40;1.10;;;;;;;22.83;31.02;99583.94;124921;1099;104316;-75
2022/05/22 10:14:03;;;;;;;3.77;1.27;;;;;;;22.80;30.71;99587.59;124901;1099;104207;-75
2022/05/22 10:16:43;;;;;;;5.63;1.60;;;;;;;22.68;31.39;99583.47;124933;1099;104165;-75
2022/05/22 10:19:29;;;;;;;4.20;1.30;;;;;;;22.42;31.72;99590.44;124941;1099;102595;-75
2022/05/22 10:22:11;;;;;;;2.95;1.00;;;;;;;22.24;32.00;99599.78;124921;1099;102830;-75
2022/05/22 10:24:56;;;;;;;3.80;1.00;;;;;;;22.18;31.33;99589.27;124926;1099;102815;-75
2022/05/22 10:27:53;;;;;;;1.70;1.00;;;;;;;22.20;31.57;99603.45;124957;1098;104070;-75
2022/05/22 10:30:31;;;;;;;6.37;1.63;;;;;;;22.21;31.93;99565.13;124816;1099;102761;-75
2022/05/22 10:33:08;;;;;;;3.60;1.50;;;;;;;22.32;31.83;99588.06;124964;1099;104214;-75
2022/05/22 10:35:48;;;;;;;2.57;1.40;;;;;;;22.29;31.59;99580.09;124905;1098;104229;-76
2022/05/22 10:38:24;;;;;;;4.33;1.23;;;;;;;22.24;31.16;99575.73;124425;1099;104179;-75
2022/05/22 10:43:53;;;;;;;2.80;1.00;;;;;;;22.11;31.98;99581.45;124921;1099;104280;-75
2022/05/22 10:46:25;;;;;;;2.73;1.03;;;;;;;22.17;32.13;99581.28;124952;1099;104232;-75
2022/05/22 10:48:58;;;;;;;4.03;1.40;;;;;;;22.30;31.56;99576.48;124434;1103;104325;-75
2022/05/22 10:51:32;;;;;;;2.60;1.20;;;;;;;22.31;32.21;99579.14;124418;1099;104198;-75
2022/05/22 10:54:04;;;;;;;5.03;1.63;;;;;;;22.23;32.25;99576.64;124878;1099;102864;-74
2022/05/22 10:56:37;;;;;;;4.17;1.57;;;;;;;22.33;32.00;99588.02;124818;1098;102817;-75
2022/05/22 11:02:17;;;;;;;4.03;1.60;;;;;;;22.31;31.40;99594.31;124459;1099;104225;-75
2022/05/22 11:04:54;;;;;;;2.70;1.20;;;;;;;22.16;31.27;99607.14;124980;1099;104233;-75
2022/05/22 11:07:32;;;;;;;4.63;1.33;;;;;;;22.14;31.80;99576.89;124886;1099;102791;-76
2022/05/22 11:10:16;;;;;;;3.33;1.40;;;;;;;22.13;31.33;99575.16;124886;1098;110816;-75
2022/05/22 11:12:47;;;;;;;2.80;1.37;;;;;;;22.05;30.33;99590.52;124914;1099;102419;-76
2022/05/22 11:15:29;;;;;;;3.67;1.60;;;;;;;22.02;30.92;99571.90;125067;1099;101858;-75
2022/05/22 11:18:08;;;;;;;3.87;1.30;;;;;;;22.08;30.65;99577.09;124405;1099;104198;-76
2022/05/22 11:20:47;;;;;;;15.07;1.90;;;;;;;22.00;31.18;99574.61;124896;1099;104208;-75
2022/05/22 11:23:38;;;;;;;4.57;1.30;;;;;;;22.06;31.53;99573.55;124825;1099;104169;-76
2022/05/22 11:26:23;;;;;;;3.23;1.43;;;;;;;22.06;31.40;99562.87;124895;1099;104284;-75
2022/05/22 11:29:15;;;;;;;4.67;1.40;;;;;;;22.07;31.87;99554.81;124874;1099;104213;-76
2022/05/22 11:32:05;;;;;;;5.40;1.40;;;;;;;22.11;31.91;99555.63;124456;1099;104438;-76
2022/05/22 11:34:53;;;;;;;5.90;1.40;;;;;;;22.14;32.15;99551.98;124809;1099;104328;-75
2022/05/22 11:37:40;;;;;;;1.93;1.40;;;;;;;22.24;31.93;99549.02;124918;1099;104229;-75
2022/05/22 11:40:27;;;;;;;3.27;1.50;;;;;;;22.22;31.72;99555.31;125021;1099;104692;-76
2022/05/22 11:43:19;;;;;;;2.20;1.60;;;;;;;22.14;31.56;99542.16;124802;1099;104198;-76
2022/05/22 11:46:01;;;;;;;3.53;1.60;;;;;;;22.18;31.95;99542.97;124920;1099;102668;-75
2022/05/22 11:48:47;;;;;;;4.13;1.43;;;;;;;22.26;32.06;99538.29;124869;1099;104326;-75
2022/05/22 11:51:48;;;;;;;5.70;1.80;;;;;;;22.13;31.17;99547.55;124883;1099;104297;-75
2022/05/22 11:54:47;;;;;;;5.43;1.57;;;;;;;22.00;31.66;99544.33;124912;1099;102351;-75
2022/05/22 11:57:31;;;;;;;3.57;2.00;;;;;;;22.00;31.94;99545.23;124884;1098;104285;-76
2022/05/22 12:00:26;;;;;;;3.63;1.80;;;;;;;22.04;31.78;99532.66;124760;1099;104226;-75
2022/05/22 12:03:27;;;;;;;2.33;1.73;;;;;;;22.07;31.39;99530.77;124904;1099;102765;-75
2022/05/22 12:06:13;;;;;;;2.47;1.27;;;;;;;22.08;31.33;99553.04;124683;1099;104159;-76
2022/05/22 12:09:05;;;;;;;5.33;1.90;;;;;;;22.04;31.74;99551.36;124903;1100;104229;-75
2022/05/22 12:11:42;;;;;;;3.13;1.80;;;;;;;22.15;31.35;99553.75;124813;1099;117704;-76
2022/05/22 12:14:26;;;;;;;5.17;1.80;;;;;;;22.04;31.77;99538.00;124903;1099;104351;-75
2022/05/22 12:17:03;;;;;;;3.90;1.70;;;;;;;22.06;32.32;99538.83;124864;1099;103718;-75
2022/05/22 12:19:45;;;;;;;3.63;1.77;;;;;;;22.18;32.05;99542.97;124965;1099;104201;-75
2022/05/22 12:22:20;;;;;;;2.87;1.70;;;;;;;22.10;31.91;99548.52;124927;1099;104261;-76
2022/05/22 12:25:08;;;;;;;5.20;1.60;;;;;;;22.01;31.99;99564.80;124922;1099;104213;-75
2022/05/22 12:27:43;;;;;;;4.53;2.00;;;;;;;22.05;31.66;99551.31;124625;1098;104290;-75
2022/05/22 12:30:23;;;;;;;3.43;1.47;;;;;;;22.21;32.17;99535.74;125003;1099;102203;-75
2022/05/22 12:32:59;;;;;;;2.70;1.60;;;;;;;22.30;31.81;99542.67;124790;1099;104210;-76
2022/05/22 12:35:37;;;;;;;3.30;1.70;;;;;;;22.31;30.89;99560.44;124611;1099;101882;-75